sensor_id;sensor_type;location;lat;lon;timestamp;pressure;altitude;pressure_sealevel;temperature;humidity
76406;BME280;65234;50.044;19.258;2022-11-23T00:01:14;97677.53;;;-0.57;nan
76406;BME280;65234;50.044;19.258;2022-11-23T00:03:48;97674.44;;;-0.55;nan
76406;BME280;65234;50.044;19.258;2022-11-23T00:06:15;97674.44;;;-0.55;nan
76406;BME280;65234;50.044;19.258;2022-11-23T00:08:41;97676.91;;;-0.50;nan
76406;BME280;65234;50.044;19.258;2022-11-23T00:11:06;97686.66;;;-0.49;nan
76406;BME280;65234;50.044;19.258;2022-11-23T00:13:33;97682.88;;;-0.44;nan
76406;BME280;65234;50.044;19.258;2022-11-23T00:15:58;97679.44;;;-0.41;nan
76406;BME280;65234;50.044;19.258;2022-11-23T00:18:24;97677.94;;;-0.39;nan
76406;BME280;65234;50.044;19.258;2022-11-23T00:20:51;97677.69;;;-0.34;nan
76406;BME280;65234;50.044;19.258;2022-11-23T00:23:17;97678.81;;;-0.35;nan
76406;BME280;65234;50.044;19.258;2022-11-23T00:25:43;97672.25;;;-0.34;nan
76406;BME280;65234;50.044;19.258;2022-11-23T00:28:09;97676.88;;;-0.34;nan
76406;BME280;65234;50.044;19.258;2022-11-23T00:30:34;97669.44;;;-0.37;nan
76406;BME280;65234;50.044;19.258;2022-11-23T00:33:00;97681.47;;;-0.38;nan
76406;BME280;65234;50.044;19.258;2022-11-23T00:35:26;97677.16;;;-0.39;nan
76406;BME280;65234;50.044;19.258;2022-11-23T00:37:53;97678.31;;;-0.40;nan
76406;BME280;65234;50.044;19.258;2022-11-23T00:40:19;97666.19;;;-0.43;nan
76406;BME280;65234;50.044;19.258;2022-11-23T00:42:45;97670.88;;;-0.43;nan
76406;BME280;65234;50.044;19.258;2022-11-23T00:45:10;97675.44;;;-0.47;nan
76406;BME280;65234;50.044;19.258;2022-11-23T00:47:36;97678.91;;;-0.47;nan
76406;BME280;65234;50.044;19.258;2022-11-23T00:50:02;97666.81;;;-0.50;nan
76406;BME280;65234;50.044;19.258;2022-11-23T00:52:28;97670.00;;;-0.47;nan
76406;BME280;65234;50.044;19.258;2022-11-23T00:54:55;97666.81;;;-0.50;nan
76406;BME280;65234;50.044;19.258;2022-11-23T00:57:21;97673.84;;;-0.49;nan
76406;BME280;65234;50.044;19.258;2022-11-23T00:59:47;97676.91;;;-0.50;nan
76406;BME280;65234;50.044;19.258;2022-11-23T01:02:12;97663.66;;;-0.52;nan
76406;BME280;65234;50.044;19.258;2022-11-23T01:04:38;97668.75;;;-0.50;nan
76406;BME280;65234;50.044;19.258;2022-11-23T01:07:04;97660.50;;;-0.54;nan
76406;BME280;65234;50.044;19.258;2022-11-23T01:09:30;97663.22;;;-0.54;nan
76406;BME280;65234;50.044;19.258;2022-11-23T01:11:57;97655.06;;;-0.54;nan
76406;BME280;65234;50.044;19.258;2022-11-23T01:14:23;97650.34;;;-0.57;nan
76406;BME280;65234;50.044;19.258;2022-11-23T01:16:49;97647.59;;;-0.57;nan
76406;BME280;65234;50.044;19.258;2022-11-23T01:19:17;97653.47;;;-0.55;nan
76406;BME280;65234;50.044;19.258;2022-11-23T01:21:43;97649.19;;;-0.56;nan
76406;BME280;65234;50.044;19.258;2022-11-23T01:24:12;97648.03;;;-0.55;nan
76406;BME280;65234;50.044;19.258;2022-11-23T01:26:39;97651.22;;;-0.53;nan
76406;BME280;65234;50.044;19.258;2022-11-23T01:29:07;97650.94;;;-0.47;nan
76406;BME280;65234;50.044;19.258;2022-11-23T01:31:33;97651.38;;;-0.45;nan
76406;BME280;65234;50.044;19.258;2022-11-23T01:34:00;97644.34;;;-0.47;nan
76406;BME280;65234;50.044;19.258;2022-11-23T01:36:28;97652.16;;;-0.45;nan
76406;BME280;65234;50.044;19.258;2022-11-23T01:38:54;97654.44;;;-0.47;nan
76406;BME280;65234;50.044;19.258;2022-11-23T01:41:23;97652.78;;;-0.52;nan
76406;BME280;65234;50.044;19.258;2022-11-23T01:43:49;97645.78;;;-0.53;nan
76406;BME280;65234;50.044;19.258;2022-11-23T01:46:17;97645.78;;;-0.53;nan
76406;BME280;65234;50.044;19.258;2022-11-23T01:48:45;97650.41;;;-0.53;nan
76406;BME280;65234;50.044;19.258;2022-11-23T01:51:14;97646.19;;;-0.51;nan
76406;BME280;65234;50.044;19.258;2022-11-23T01:53:40;97650.94;;;-0.47;nan
76406;BME280;65234;50.044;19.258;2022-11-23T01:56:09;97649.69;;;-0.50;nan
76406;BME280;65234;50.044;19.258;2022-11-23T01:58:39;97656.28;;;-0.51;nan
76406;BME280;65234;50.044;19.258;2022-11-23T02:01:06;97657.06;;;-0.51;nan
76406;BME280;65234;50.044;19.258;2022-11-23T02:03:33;97662.09;;;-0.53;nan
76406;BME280;65234;50.044;19.258;2022-11-23T02:06:03;97664.56;;;-0.47;nan
76406;BME280;65234;50.044;19.258;2022-11-23T02:08:31;97657.53;;;-0.49;nan
76406;BME280;65234;50.044;19.258;2022-11-23T02:10:58;97655.50;;;-0.52;nan
76406;BME280;65234;50.044;19.258;2022-11-23T02:13:24;97665.22;;;-0.51;nan
76406;BME280;65234;50.044;19.258;2022-11-23T02:15:52;97662.88;;;-0.52;nan
76406;BME280;65234;50.044;19.258;2022-11-23T02:18:21;97653.84;;;-0.56;nan
76406;BME280;65234;50.044;19.258;2022-11-23T02:20:49;97658.50;;;-0.57;nan
76406;BME280;65234;50.044;19.258;2022-11-23T02:23:23;97664.28;;;-0.58;nan
76406;BME280;65234;50.044;19.258;2022-11-23T02:26:01;97664.63;;;-0.60;nan
76406;BME280;65234;50.044;19.258;2022-11-23T02:28:32;97662.69;;;-0.59;nan
76406;BME280;65234;50.044;19.258;2022-11-23T02:30:59;97661.22;;;-0.57;nan
76406;BME280;65234;50.044;19.258;2022-11-23T02:33:25;97664.72;;;-0.56;nan
76406;BME280;65234;50.044;19.258;2022-11-23T02:35:53;97667.53;;;-0.53;nan
76406;BME280;65234;50.044;19.258;2022-11-23T02:38:19;97665.22;;;-0.51;nan
76406;BME280;65234;50.044;19.258;2022-11-23T02:40:45;97665.22;;;-0.51;nan
76406;BME280;65234;50.044;19.258;2022-11-23T02:43:13;97669.19;;;-0.48;nan
76406;BME280;65234;50.044;19.258;2022-11-23T02:45:42;97660.66;;;-0.47;nan
76406;BME280;65234;50.044;19.258;2022-11-23T02:48:11;97667.69;;;-0.45;nan
76406;BME280;65234;50.044;19.258;2022-11-23T02:50:37;97657.94;;;-0.47;nan
76406;BME280;65234;50.044;19.258;2022-11-23T02:53:02;97662.25;;;-0.45;nan
76406;BME280;65234;50.044;19.258;2022-11-23T02:55:28;97660.66;;;-0.47;nan
76406;BME280;65234;50.044;19.258;2022-11-23T02:57:54;97661.47;;;-0.46;nan
76406;BME280;65234;50.044;19.258;2022-11-23T03:00:21;97663.84;;;-0.44;nan
76406;BME280;65234;50.044;19.258;2022-11-23T03:02:47;97653.75;;;-0.44;nan
76406;BME280;65234;50.044;19.258;2022-11-23T03:05:13;97662.00;;;-0.40;nan
76406;BME280;65234;50.044;19.258;2022-11-23T03:07:38;97655.75;;;-0.41;nan
76406;BME280;65234;50.044;19.258;2022-11-23T03:10:05;97654.97;;;-0.41;nan
76406;BME280;65234;50.044;19.258;2022-11-23T03:12:31;97647.16;;;-0.43;nan
76406;BME280;65234;50.044;19.258;2022-11-23T03:14:57;97649.53;;;-0.41;nan
76406;BME280;65234;50.044;19.258;2022-11-23T03:17:23;97646.47;;;-0.40;nan
76406;BME280;65234;50.044;19.258;2022-11-23T03:19:49;97644.50;;;-0.39;nan
76406;BME280;65234;50.044;19.258;2022-11-23T03:22:15;97655.38;;;-0.39;nan
76406;BME280;65234;50.044;19.258;2022-11-23T03:24:41;97646.47;;;-0.40;nan
76406;BME280;65234;50.044;19.258;2022-11-23T03:27:06;97644.97;;;-0.37;nan
76406;BME280;65234;50.044;19.258;2022-11-23T03:29:32;97656.25;;;-0.35;nan
76406;BME280;65234;50.044;19.258;2022-11-23T03:31:58;97659.78;;;-0.35;nan
76406;BME280;65234;50.044;19.258;2022-11-23T03:34:25;97654.78;;;-0.33;nan
76406;BME280;65234;50.044;19.258;2022-11-23T03:36:51;97649.25;;;-0.36;nan
76406;BME280;65234;50.044;19.258;2022-11-23T03:39:17;97653.19;;;-0.34;nan
76406;BME280;65234;50.044;19.258;2022-11-23T03:41:42;97650.13;;;-0.32;nan
76406;BME280;65234;50.044;19.258;2022-11-23T03:44:08;97646.63;;;-0.33;nan
76406;BME280;65234;50.044;19.258;2022-11-23T03:46:34;97647.03;;;-0.31;nan
76406;BME280;65234;50.044;19.258;2022-11-23T03:49:00;97660.72;;;-0.27;nan
76406;BME280;65234;50.044;19.258;2022-11-23T03:51:27;97662.31;;;-0.26;nan
76406;BME280;65234;50.044;19.258;2022-11-23T03:53:53;97659.25;;;-0.25;nan
76406;BME280;65234;50.044;19.258;2022-11-23T03:56:18;97657.31;;;-0.24;nan
76406;BME280;65234;50.044;19.258;2022-11-23T03:58:44;97658.47;;;-0.25;nan
76406;BME280;65234;50.044;19.258;2022-11-23T04:01:10;97663.44;;;-0.27;nan
76406;BME280;65234;50.044;19.258;2022-11-23T04:03:36;97660.31;;;-0.29;nan
76406;BME280;65234;50.044;19.258;2022-11-23T04:06:01;97667.25;;;-0.32;nan
76406;BME280;65234;50.044;19.258;2022-11-23T04:08:29;97659.16;;;-0.28;nan
76406;BME280;65234;50.044;19.258;2022-11-23T04:10:55;97660.31;;;-0.29;nan
76406;BME280;65234;50.044;19.258;2022-11-23T04:13:21;97660.31;;;-0.29;nan
76406;BME280;65234;50.044;19.258;2022-11-23T04:15:46;97664.94;;;-0.30;nan
76406;BME280;65234;50.044;19.258;2022-11-23T04:18:12;97654.88;;;-0.29;nan
76406;BME280;65234;50.044;19.258;2022-11-23T04:20:38;97657.13;;;-0.31;nan
76406;BME280;65234;50.044;19.258;2022-11-23T04:23:04;97661.09;;;-0.29;nan
76406;BME280;65234;50.044;19.258;2022-11-23T04:25:30;97659.84;;;-0.31;nan
76406;BME280;65234;50.044;19.258;2022-11-23T04:27:56;97650.41;;;-0.37;nan
76406;BME280;65234;50.044;19.258;2022-11-23T04:30:22;97653.28;;;-0.30;nan
76406;BME280;65234;50.044;19.258;2022-11-23T04:32:48;97654.88;;;-0.29;nan
76406;BME280;65234;50.044;19.258;2022-11-23T04:35:13;97654.53;;;-0.28;nan
76406;BME280;65234;50.044;19.258;2022-11-23T04:37:39;97656.44;;;-0.28;nan
76406;BME280;65234;50.044;19.258;2022-11-23T04:40:06;97657.13;;;-0.31;nan
76406;BME280;65234;50.044;19.258;2022-11-23T04:42:34;97660.56;;;-0.34;nan
76406;BME280;65234;50.044;19.258;2022-11-23T04:44:59;97656.25;;;-0.35;nan
76406;BME280;65234;50.044;19.258;2022-11-23T04:47:25;97659.44;;;-0.33;nan
76406;BME280;65234;50.044;19.258;2022-11-23T04:49:51;97651.63;;;-0.35;nan
76406;BME280;65234;50.044;19.258;2022-11-23T04:52:17;97659.44;;;-0.33;nan
76406;BME280;65234;50.044;19.258;2022-11-23T04:54:42;97657.84;;;-0.34;nan
76406;BME280;65234;50.044;19.258;2022-11-23T04:57:08;97656.63;;;-0.37;nan
76406;BME280;65234;50.044;19.258;2022-11-23T04:59:35;97664.53;;;-0.32;nan
76406;BME280;65234;50.044;19.258;2022-11-23T05:02:01;97660.31;;;-0.29;nan
76406;BME280;65234;50.044;19.258;2022-11-23T05:04:27;97651.34;;;-0.30;nan
76406;BME280;65234;50.044;19.258;2022-11-23T05:06:53;97643.53;;;-0.31;nan
76406;BME280;65234;50.044;19.258;2022-11-23T05:09:18;97643.91;;;-0.33;nan
76406;BME280;65234;50.044;19.258;2022-11-23T05:11:44;97632.31;;;-0.30;nan
76406;BME280;65234;50.044;19.258;2022-11-23T05:14:10;97644.41;;;-0.27;nan
76406;BME280;65234;50.044;19.258;2022-11-23T05:16:37;97643.63;;;-0.28;nan
76406;BME280;65234;50.044;19.258;2022-11-23T05:19:03;97641.34;;;-0.26;nan
76406;BME280;65234;50.044;19.258;2022-11-23T05:21:29;97631.59;;;-0.27;nan
76406;BME280;65234;50.044;19.258;2022-11-23T05:23:54;97633.53;;;-0.27;nan
76406;BME280;65234;50.044;19.258;2022-11-23T05:26:20;97642.06;;;-0.29;nan
76406;BME280;65234;50.044;19.258;2022-11-23T05:28:46;97638.53;;;-0.29;nan
76406;BME280;65234;50.044;19.258;2022-11-23T05:31:12;97642.84;;;-0.28;nan
76406;BME280;65234;50.044;19.258;2022-11-23T05:33:38;97642.84;;;-0.28;nan
76406;BME280;65234;50.044;19.258;2022-11-23T05:36:05;97652.47;;;-0.31;nan
76406;BME280;65234;50.044;19.258;2022-11-23T05:38:31;97659.97;;;-0.28;nan
76406;BME280;65234;50.044;19.258;2022-11-23T05:40:56;97651.00;;;-0.28;nan
76406;BME280;65234;50.044;19.258;2022-11-23T05:43:22;97645.56;;;-0.28;nan
76406;BME280;65234;50.044;19.258;2022-11-23T05:45:48;97649.44;;;-0.29;nan
76406;BME280;65234;50.044;19.258;2022-11-23T05:48:14;97648.63;;;-0.30;nan
76406;BME280;65234;50.044;19.258;2022-11-23T05:50:41;97661.09;;;-0.29;nan
76406;BME280;65234;50.044;19.258;2022-11-23T05:53:08;97664.63;;;-0.28;nan
76406;BME280;65234;50.044;19.258;2022-11-23T05:55:34;97668.88;;;-0.27;nan
76406;BME280;65234;50.044;19.258;2022-11-23T05:58:00;97668.88;;;-0.27;nan
76406;BME280;65234;50.044;19.258;2022-11-23T06:00:26;97676.72;;;-0.26;nan
76406;BME280;65234;50.044;19.258;2022-11-23T06:02:51;97677.84;;;-0.27;nan
76406;BME280;65234;50.044;19.258;2022-11-23T06:05:17;97679.44;;;-0.26;nan
76406;BME280;65234;50.044;19.258;2022-11-23T06:07:44;97676.78;;;-0.22;nan
76406;BME280;65234;50.044;19.258;2022-11-23T06:10:10;97686.97;;;-0.19;nan
76406;BME280;65234;50.044;19.258;2022-11-23T06:12:36;97679.19;;;-0.21;nan
76406;BME280;65234;50.044;19.258;2022-11-23T06:15:02;97676.06;;;-0.19;nan
76406;BME280;65234;50.044;19.258;2022-11-23T06:17:28;97685.41;;;-0.20;nan
76406;BME280;65234;50.044;19.258;2022-11-23T06:19:54;97669.28;;;0.06;nan
76406;BME280;65234;50.044;19.258;2022-11-23T06:22:19;97679.34;;;0.21;nan
76406;BME280;65234;50.044;19.258;2022-11-23T06:24:47;97685.66;;;0.25;nan
76406;BME280;65234;50.044;19.258;2022-11-23T06:27:12;97686.22;;;0.15;nan
76406;BME280;65234;50.044;19.258;2022-11-23T06:29:38;97691.47;;;0.08;nan
76406;BME280;65234;50.044;19.258;2022-11-23T06:32:04;97685.97;;;0.05;nan
76406;BME280;65234;50.044;19.258;2022-11-23T06:34:29;97693.63;;;-0.01;nan
76406;BME280;65234;50.044;19.258;2022-11-23T06:36:55;97688.09;;;-0.05;nan
76406;BME280;65234;50.044;19.258;2022-11-23T06:39:21;97689.59;;;-0.07;nan
76406;BME280;65234;50.044;19.258;2022-11-23T06:41:48;97691.25;;;-0.03;nan
76406;BME280;65234;50.044;19.258;2022-11-23T06:44:14;97691.63;;;-0.04;nan
76406;BME280;65234;50.044;19.258;2022-11-23T06:46:39;97679.94;;;-0.05;nan
76406;BME280;65234;50.044;19.258;2022-11-23T06:49:05;97685.00;;;-0.03;nan
76406;BME280;65234;50.044;19.258;2022-11-23T06:51:31;97683.88;;;-0.02;nan
76406;BME280;65234;50.044;19.258;2022-11-23T06:53:57;97702.13;;;-0.03;nan
76406;BME280;65234;50.044;19.258;2022-11-23T06:56:22;97702.22;;;0.01;nan
76406;BME280;65234;50.044;19.258;2022-11-23T06:58:49;97709.88;;;-0.05;nan
76406;BME280;65234;50.044;19.258;2022-11-23T07:01:15;97708.28;;;-0.06;nan
76406;BME280;65234;50.044;19.258;2022-11-23T07:03:41;97709.00;;;-0.09;nan
76406;BME280;65234;50.044;19.258;2022-11-23T07:06:08;97701.63;;;-0.08;nan
76406;BME280;65234;50.044;19.258;2022-11-23T07:08:35;97704.34;;;-0.08;nan
76406;BME280;65234;50.044;19.258;2022-11-23T07:11:01;97708.94;;;-0.12;nan
76406;BME280;65234;50.044;19.258;2022-11-23T07:13:27;97710.47;;;-0.11;nan
76406;BME280;65234;50.044;19.258;2022-11-23T07:15:56;97714.00;;;-0.11;nan
76406;BME280;65234;50.044;19.258;2022-11-23T07:18:22;97698.47;;;-0.10;nan
76406;BME280;65234;50.044;19.258;2022-11-23T07:20:47;97709.81;;;-0.08;nan
76406;BME280;65234;50.044;19.258;2022-11-23T07:23:13;97709.09;;;-0.05;nan
76406;BME280;65234;50.044;19.258;2022-11-23T07:25:39;97706.78;;;-0.03;nan
76406;BME280;65234;50.044;19.258;2022-11-23T07:28:06;97705.22;;;-0.04;nan
76406;BME280;65234;50.044;19.258;2022-11-23T07:30:33;97697.72;;;0.09;nan
76406;BME280;65234;50.044;19.258;2022-11-23T07:33:01;97705.44;;;0.22;nan
76406;BME280;65234;50.044;19.258;2022-11-23T07:35:28;97711.94;;;0.18;nan
76406;BME280;65234;50.044;19.258;2022-11-23T07:37:54;97700.53;;;0.12;nan
76406;BME280;65234;50.044;19.258;2022-11-23T07:40:19;97702.66;;;0.03;nan
76406;BME280;65234;50.044;19.258;2022-11-23T07:42:45;97714.78;;;0.06;nan
76406;BME280;65234;50.044;19.258;2022-11-23T07:45:11;97706.94;;;0.04;nan
76406;BME280;65234;50.044;19.258;2022-11-23T07:47:38;97706.94;;;0.04;nan
76406;BME280;65234;50.044;19.258;2022-11-23T07:50:06;97704.94;;;0.01;nan
76406;BME280;65234;50.044;19.258;2022-11-23T07:52:35;97706.00;;;-0.04;nan
76406;BME280;65234;50.044;19.258;2022-11-23T07:55:01;97704.34;;;-0.08;nan
76406;BME280;65234;50.044;19.258;2022-11-23T07:57:27;97713.75;;;-0.06;nan
76406;BME280;65234;50.044;19.258;2022-11-23T07:59:52;97709.81;;;-0.08;nan
76406;BME280;65234;50.044;19.258;2022-11-23T08:02:18;97700.22;;;-0.18;nan
76406;BME280;65234;50.044;19.258;2022-11-23T08:04:44;97718.84;;;-0.04;nan
76406;BME280;65234;50.044;19.258;2022-11-23T08:07:11;97725.16;;;0.00;nan
76406;BME280;65234;50.044;19.258;2022-11-23T08:09:37;97727.09;;;-0.01;nan
76406;BME280;65234;50.044;19.258;2022-11-23T08:12:03;97709.16;;;-0.02;nan
76406;BME280;65234;50.044;19.258;2022-11-23T08:14:29;97719.72;;;0.00;nan
76406;BME280;65234;50.044;19.258;2022-11-23T08:16:55;97731.75;;;-0.01;nan
76406;BME280;65234;50.044;19.258;2022-11-23T08:19:20;97727.78;;;-0.04;nan
76406;BME280;65234;50.044;19.258;2022-11-23T08:21:46;97718.31;;;-0.10;nan
76406;BME280;65234;50.044;19.258;2022-11-23T08:24:13;97724.19;;;-0.08;nan
76406;BME280;65234;50.044;19.258;2022-11-23T08:26:39;97720.78;;;-0.05;nan
76406;BME280;65234;50.044;19.258;2022-11-23T08:29:05;97724.00;;;0.01;nan
76406;BME280;65234;50.044;19.258;2022-11-23T08:31:31;97710.66;;;-0.04;nan
76406;BME280;65234;50.044;19.258;2022-11-23T08:33:57;97720.13;;;0.02;nan
76406;BME280;65234;50.044;19.258;2022-11-23T08:36:23;97718.63;;;0.05;nan
76406;BME280;65234;50.044;19.258;2022-11-23T08:38:49;97713.09;;;0.01;nan
76406;BME280;65234;50.044;19.258;2022-11-23T08:41:17;97713.09;;;0.01;nan
76406;BME280;65234;50.044;19.258;2022-11-23T08:43:43;97710.38;;;0.01;nan
76406;BME280;65234;50.044;19.258;2022-11-23T08:46:09;97706.94;;;0.04;nan
76406;BME280;65234;50.044;19.258;2022-11-23T08:48:35;97696.16;;;0.08;nan
76406;BME280;65234;50.044;19.258;2022-11-23T08:51:00;97708.69;;;0.12;nan
76406;BME280;65234;50.044;19.258;2022-11-23T08:53:26;97702.09;;;0.13;nan
76406;BME280;65234;50.044;19.258;2022-11-23T08:55:52;97704.09;;;0.16;nan
76406;BME280;65234;50.044;19.258;2022-11-23T08:58:19;97693.84;;;0.10;nan
76406;BME280;65234;50.044;19.258;2022-11-23T09:00:45;97722.81;;;0.18;nan
76406;BME280;65234;50.044;19.258;2022-11-23T09:03:10;97713.53;;;0.19;nan
76406;BME280;65234;50.044;19.258;2022-11-23T09:05:37;97720.63;;;0.23;nan
76406;BME280;65234;50.044;19.258;2022-11-23T09:08:03;97724.91;;;0.24;nan
76406;BME280;65234;50.044;19.258;2022-11-23T09:10:29;97708.56;;;0.24;nan
76406;BME280;65234;50.044;19.258;2022-11-23T09:12:54;97713.75;;;0.29;nan
76406;BME280;65234;50.044;19.258;2022-11-23T09:15:22;97712.16;;;0.28;nan
76406;BME280;65234;50.044;19.258;2022-11-23T09:17:47;97703.56;;;0.26;nan
76406;BME280;65234;50.044;19.258;2022-11-23T09:20:14;97708.75;;;0.31;nan
76406;BME280;65234;50.044;19.258;2022-11-23T09:22:39;97708.94;;;0.23;nan
76406;BME280;65234;50.044;19.258;2022-11-23T09:25:06;97702.78;;;0.26;nan
76406;BME280;65234;50.044;19.258;2022-11-23T09:27:32;97711.47;;;0.31;nan
76406;BME280;65234;50.044;19.258;2022-11-23T09:29:58;97696.69;;;0.32;nan
76406;BME280;65234;50.044;19.258;2022-11-23T09:32:24;97706.88;;;0.35;nan
76406;BME280;65234;50.044;19.258;2022-11-23T09:34:50;97701.06;;;0.37;nan
76406;BME280;65234;50.044;19.258;2022-11-23T09:37:16;97696.34;;;0.34;nan
76406;BME280;65234;50.044;19.258;2022-11-23T09:39:42;97697.63;;;0.40;nan
76406;BME280;65234;50.044;19.258;2022-11-23T09:42:20;97689.75;;;0.35;nan
76406;BME280;65234;50.044;19.258;2022-11-23T09:45:09;97692.47;;;0.35;nan
76406;BME280;65234;50.044;19.258;2022-11-23T09:47:55;97686.66;;;0.36;nan
76406;BME280;65234;50.044;19.258;2022-11-23T09:50:26;97688.97;;;0.34;nan
76406;BME280;65234;50.044;19.258;2022-11-23T09:52:52;97682.28;;;0.32;nan
76406;BME280;65234;50.044;19.258;2022-11-23T09:55:24;97680.88;;;0.38;nan
76406;BME280;65234;50.044;19.258;2022-11-23T10:00:24;97675.91;;;0.43;nan
76406;BME280;65234;50.044;19.258;2022-11-23T10:02:52;97675.50;;;0.41;nan
76406;BME280;65234;50.044;19.258;2022-11-23T10:05:20;97681.34;;;0.43;nan
76406;BME280;65234;50.044;19.258;2022-11-23T10:07:56;97675.63;;;0.48;nan
76406;BME280;65234;50.044;19.258;2022-11-23T10:10:37;97665.59;;;0.53;nan
76406;BME280;65234;50.044;19.258;2022-11-23T10:13:14;97648.91;;;0.54;nan
76406;BME280;65234;50.044;19.258;2022-11-23T10:15:52;97657.41;;;0.53;nan
76406;BME280;65234;50.044;19.258;2022-11-23T10:18:29;97655.22;;;0.58;nan
76406;BME280;65234;50.044;19.258;2022-11-23T10:23:41;97646.22;;;0.77;nan
76406;BME280;65234;50.044;19.258;2022-11-23T10:26:15;97643.63;;;0.84;nan
76406;BME280;65234;50.044;19.258;2022-11-23T10:28:40;97641.75;;;0.88;nan
76406;BME280;65234;50.044;19.258;2022-11-23T10:31:12;97648.06;;;0.92;nan
76406;BME280;65234;50.044;19.258;2022-11-23T10:33:47;97653.50;;;0.92;nan
76406;BME280;65234;50.044;19.258;2022-11-23T10:36:15;97642.25;;;0.93;nan
76406;BME280;65234;50.044;19.258;2022-11-23T10:38:41;97637.88;;;0.89;nan
76406;BME280;65234;50.044;19.258;2022-11-23T10:41:08;97643.47;;;0.96;nan
76406;BME280;65234;50.044;19.258;2022-11-23T10:43:40;97650.84;;;0.95;nan
76406;BME280;65234;50.044;19.258;2022-11-23T10:46:27;97645.91;;;1.01;nan
76406;BME280;65234;50.044;19.258;2022-11-23T10:48:56;97637.72;;;1.01;nan
76406;BME280;65234;50.044;19.258;2022-11-23T10:51:34;97643.53;;;1.00;nan
76406;BME280;65234;50.044;19.258;2022-11-23T10:54:02;97651.34;;;1.01;nan
76406;BME280;65234;50.044;19.258;2022-11-23T10:56:28;97645.09;;;1.01;nan
76406;BME280;65234;50.044;19.258;2022-11-23T10:58:55;97639.31;;;1.02;nan
76406;BME280;65234;50.044;19.258;2022-11-23T11:01:22;97640.88;;;1.03;nan
76406;BME280;65234;50.044;19.258;2022-11-23T11:03:48;97642.09;;;1.06;nan
76406;BME280;65234;50.044;19.258;2022-11-23T11:06:20;97652.94;;;1.02;nan
76406;BME280;65234;50.044;19.258;2022-11-23T11:08:51;97649.78;;;1.00;nan
76406;BME280;65234;50.044;19.258;2022-11-23T11:11:24;97639.38;;;1.06;nan
76406;BME280;65234;50.044;19.258;2022-11-23T11:14:00;97640.44;;;1.01;nan
76406;BME280;65234;50.044;19.258;2022-11-23T11:16:28;97634.66;;;1.03;nan
76406;BME280;65234;50.044;19.258;2022-11-23T11:18:55;97639.59;;;0.97;nan
76406;BME280;65234;50.044;19.258;2022-11-23T11:21:25;97638.06;;;1.00;nan
76406;BME280;65234;50.044;19.258;2022-11-23T11:23:58;97632.63;;;1.00;nan
76406;BME280;65234;50.044;19.258;2022-11-23T11:26:26;97632.56;;;0.96;nan
76406;BME280;65234;50.044;19.258;2022-11-23T11:28:53;97632.84;;;0.91;nan
76406;BME280;65234;50.044;19.258;2022-11-23T11:31:33;97635.56;;;0.91;nan
76406;BME280;65234;50.044;19.258;2022-11-23T11:34:09;97626.63;;;0.90;nan
76406;BME280;65234;50.044;19.258;2022-11-23T11:36:43;97632.84;;;0.91;nan
76406;BME280;65234;50.044;19.258;2022-11-23T11:39:15;97637.88;;;0.89;nan
76406;BME280;65234;50.044;19.258;2022-11-23T11:41:43;97636.25;;;0.84;nan
76406;BME280;65234;50.044;19.258;2022-11-23T11:44:16;97642.50;;;0.85;nan
76406;BME280;65234;50.044;19.258;2022-11-23T11:46:47;97640.63;;;0.89;nan
76406;BME280;65234;50.044;19.258;2022-11-23T11:49:18;97628.06;;;0.84;nan
76406;BME280;65234;50.044;19.258;2022-11-23T11:51:50;97630.00;;;0.84;nan
76406;BME280;65234;50.044;19.258;2022-11-23T11:54:23;97624.13;;;0.82;nan
76406;BME280;65234;50.044;19.258;2022-11-23T11:56:51;97619.47;;;0.82;nan
76406;BME280;65234;50.044;19.258;2022-11-23T11:59:22;97623.34;;;0.81;nan
76406;BME280;65234;50.044;19.258;2022-11-23T12:01:54;97631.53;;;0.81;nan
76406;BME280;65234;50.044;19.258;2022-11-23T12:04:25;97643.94;;;0.79;nan
76406;BME280;65234;50.044;19.258;2022-11-23T12:07:01;97634.47;;;0.73;nan
76406;BME280;65234;50.044;19.258;2022-11-23T12:09:31;97632.94;;;0.75;nan
76406;BME280;65234;50.044;19.258;2022-11-23T12:11:59;97643.84;;;0.75;nan
76406;BME280;65234;50.044;19.258;2022-11-23T12:14:25;97641.56;;;0.77;nan
76406;BME280;65234;50.044;19.258;2022-11-23T12:16:57;97639.19;;;0.76;nan
76406;BME280;65234;50.044;19.258;2022-11-23T12:19:29;97643.44;;;0.73;nan
76406;BME280;65234;50.044;19.258;2022-11-23T12:22:10;97643.78;;;0.72;nan
76406;BME280;65234;50.044;19.258;2022-11-23T12:24:50;97641.84;;;0.72;nan
76406;BME280;65234;50.044;19.258;2022-11-23T12:27:25;97639.84;;;0.69;nan
76406;BME280;65234;50.044;19.258;2022-11-23T12:30:07;97644.44;;;0.65;nan
76406;BME280;65234;50.044;19.258;2022-11-23T12:32:43;97656.94;;;0.66;nan
76406;BME280;65234;50.044;19.258;2022-11-23T12:35:24;97660.44;;;0.67;nan
76406;BME280;65234;50.044;19.258;2022-11-23T12:38:03;97653.75;;;0.64;nan
76406;BME280;65234;50.044;19.258;2022-11-23T12:40:54;97649.81;;;0.62;nan
76406;BME280;65234;50.044;19.258;2022-11-23T12:43:25;97665.16;;;0.70;nan
76406;BME280;65234;50.044;19.258;2022-11-23T12:46:02;97664.88;;;0.75;nan
76406;BME280;65234;50.044;19.258;2022-11-23T12:48:40;97664.03;;;0.71;nan
76406;BME280;65234;50.044;19.258;2022-11-23T12:51:19;97667.16;;;0.73;nan
76406;BME280;65234;50.044;19.258;2022-11-23T12:53:56;97660.50;;;0.70;nan
76406;BME280;65234;50.044;19.258;2022-11-23T12:56:50;97662.31;;;0.63;nan
76406;BME280;65234;50.044;19.258;2022-11-23T12:59:19;97654.56;;;0.65;nan
76406;BME280;65234;50.044;19.258;2022-11-23T13:01:49;97665.44;;;0.65;nan
76406;BME280;65234;50.044;19.258;2022-11-23T13:04:43;97665.44;;;0.65;nan
76406;BME280;65234;50.044;19.258;2022-11-23T13:07:31;97663.09;;;0.63;nan
76406;BME280;65234;50.044;19.258;2022-11-23T13:10:14;97670.91;;;0.65;nan
76406;BME280;65234;50.044;19.258;2022-11-23T13:12:49;97669.31;;;0.64;nan
76406;BME280;65234;50.044;19.258;2022-11-23T13:15:33;97682.53;;;0.62;nan
76406;BME280;65234;50.044;19.258;2022-11-23T13:18:08;97681.66;;;0.58;nan
76406;BME280;65234;50.044;19.258;2022-11-23T13:20:48;97681.66;;;0.58;nan
76406;BME280;65234;50.044;19.258;2022-11-23T13:23:22;97670.75;;;0.58;nan
76406;BME280;65234;50.044;19.258;2022-11-23T13:26:14;97676.22;;;0.58;nan